Time;durP1;ratioP1;P1;durP2;ratioP2;P2;SDS_P1;SDS_P2;PMS_P1;PMS_P2;Temp;Humidity;BMP_temperature;BMP_pressure;BME280_temperature;BME280_humidity;BME280_pressure;Samples;Min_cycle;Max_cycle;Signal;HPM_P1;HPM_P2
2023/01/19 00:00:29;;;;;;;;;18.75;17.75;25.70;45.60;;;;;;112556;1241;49121;-58
2023/01/19 00:03:17;;;;;;;;;22.00;19.75;25.60;45.50;;;;;;112553;1245;46953;-58
2023/01/19 00:05:44;;;;;;;;;27.50;22.50;25.60;45.50;;;;;;112528;1241;56116;-59
2023/01/19 00:08:14;;;;;;;;;24.00;21.50;25.60;45.40;;;;;;112535;1245;56856;-59
2023/01/19 00:10:42;;;;;;;;;22.50;18.00;25.60;45.40;;;;;;112538;1246;49144;-60
2023/01/19 00:13:10;;;;;;;;;19.67;18.33;25.60;45.40;;;;;;112552;1245;50462;-59
2023/01/19 00:15:37;;;;;;;;;20.75;18.75;25.60;45.50;;;;;;112576;1245;44563;-58
2023/01/19 00:18:04;;;;;;;;;23.50;22.50;25.50;45.40;;;;;;112572;1245;56073;-60
2023/01/19 00:20:34;;;;;;;;;26.00;22.75;25.50;45.50;;;;;;112560;1245;56084;-60
2023/01/19 00:23:01;;;;;;;;;20.67;19.00;25.50;45.60;;;;;;112575;1245;50583;-60
2023/01/19 00:25:28;;;;;;;;;21.50;18.50;25.50;45.50;;;;;;112578;1246;48995;-61
2023/01/19 00:27:55;;;;;;;;;25.50;20.00;25.50;45.50;;;;;;112576;1245;45142;-59
2023/01/19 00:30:22;;;;;;;;;21.00;17.75;25.50;45.50;;;;;;112550;1245;56713;-59
2023/01/19 00:32:49;;;;;;;;;24.00;23.00;25.50;45.50;;;;;;112623;1245;56031;-60
2023/01/19 00:35:16;;;;;;;;;22.00;19.25;25.40;45.40;;;;;;112569;1243;49197;-59
2023/01/19 00:37:46;;;;;;;;;23.75;21.00;25.40;45.50;;;;;;112557;1246;49673;-58
2023/01/19 00:40:13;;;;;;;;;24.00;21.00;25.40;45.50;;;;;;112583;1245;45350;-59
2023/01/19 00:42:43;;;;;;;;;22.75;19.50;25.40;45.50;;;;;;112585;1242;56154;-59
2023/01/19 00:45:12;;;;;;;;;20.50;18.50;25.40;45.50;;;;;;112573;1243;55388;-59
2023/01/19 00:47:39;;;;;;;;;21.50;20.00;25.30;45.50;;;;;;112576;1245;51127;-58
2023/01/19 00:50:10;;;;;;;;;23.50;21.00;25.30;45.90;;;;;;112542;1245;49764;-58
2023/01/19 00:52:39;;;;;;;;;26.25;22.50;25.30;45.40;;;;;;112572;1241;45095;-58
2023/01/19 00:55:07;;;;;;;;;25.50;22.50;25.30;45.40;;;;;;112570;1241;56631;-59
2023/01/19 00:57:34;;;;;;;;;20.75;17.50;25.30;45.40;;;;;;112592;1245;55754;-58
2023/01/19 01:00:05;;;;;;;;;22.75;21.25;25.30;45.40;;;;;;112560;1245;49279;-58
2023/01/19 01:02:32;;;;;;;;;25.00;22.25;25.30;45.40;;;;;;112579;1241;50116;-58
2023/01/19 01:05:01;;;;;;;;;23.00;21.50;25.30;45.40;;;;;;112574;1242;44595;-58
2023/01/19 01:07:29;;;;;;;;;19.50;18.00;25.30;45.40;;;;;;112567;1241;55789;-59
2023/01/19 01:09:56;;;;;;;;;23.25;20.00;25.20;45.40;;;;;;112564;1241;55500;-60
2023/01/19 01:12:23;;;;;;;;;18.50;16.75;25.20;45.40;;;;;;112557;1245;50685;-59
2023/01/19 01:14:50;;;;;;;;;21.50;19.00;25.20;45.40;;;;;;112051;1245;662244;-60
2023/01/19 01:17:23;;;;;;;;;22.50;21.00;25.20;45.40;;;;;;112584;1245;45296;-59
2023/01/19 01:19:51;;;;;;;;;23.00;21.50;25.20;45.40;;;;;;112553;1241;55989;-59
2023/01/19 01:22:18;;;;;;;;;23.00;19.25;25.20;45.40;;;;;;112549;1245;55411;-59
2023/01/19 01:24:45;;;;;;;;;24.33;21.67;25.20;45.40;;;;;;112549;1242;49843;-59
2023/01/19 01:27:12;;;;;;;;;22.00;20.75;25.20;45.60;;;;;;112551;1241;49398;-59
2023/01/19 01:29:40;;;;;;;;;22.33;19.67;25.20;45.40;;;;;;112265;1245;45308;-59
2023/01/19 01:32:07;;;;;;;;;23.00;20.67;25.20;45.40;;;;;;112535;1245;55586;-59
2023/01/19 01:34:34;;;;;;;;;22.50;21.75;25.20;45.60;;;;;;112541;1241;55477;-59
2023/01/19 01:37:01;;;;;;;;;22.50;19.75;25.10;45.40;;;;;;112533;1245;50285;-59
2023/01/19 01:39:28;;;;;;;;;21.50;18.75;25.20;45.40;;;;;;112538;1245;49217;-58
2023/01/19 01:41:55;;;;;;;;;24.75;21.25;25.10;45.40;;;;;;112554;1243;44989;-59
2023/01/19 01:44:48;;;;;;;;;19.25;18.00;25.10;45.40;;;;;;112589;1245;55987;-59
2023/01/19 01:47:43;;;;;;;;;21.00;18.00;25.10;45.40;;;;;;112598;1245;55336;-59
2023/01/19 01:50:19;;;;;;;;;23.25;20.25;25.10;45.40;;;;;;112575;1246;49719;-59
2023/01/19 01:52:53;;;;;;;;;22.00;20.67;25.10;45.40;;;;;;112588;1241;49897;-59
2023/01/19 01:55:22;;;;;;;;;21.00;19.25;25.10;45.30;;;;;;112547;1246;44677;-59
2023/01/19 01:57:53;;;;;;;;;20.75;18.75;25.10;45.20;;;;;;112584;1245;55872;-59
2023/01/19 02:00:20;;;;;;;;;21.33;18.33;25.10;45.30;;;;;;112571;1245;56067;-59
2023/01/19 02:02:50;;;;;;;;;23.25;19.50;25.10;45.20;;;;;;112255;1245;49628;-59
2023/01/19 02:05:24;;;;;;;;;21.25;18.25;25.10;45.20;;;;;;112577;1241;49197;-59
2023/01/19 02:13:36;;;;;;;;;22.00;19.50;25.10;45.20;;;;;;112574;1245;56015;-58
2023/01/19 02:16:07;;;;;;;;;22.00;19.25;25.00;45.20;;;;;;112577;1241;49150;-59
2023/01/19 02:18:34;;;;;;;;;20.50;19.00;25.00;45.20;;;;;;112543;1245;49819;-60
2023/01/19 02:21:20;;;;;;;;;28.00;20.75;25.00;45.10;;;;;;112275;1246;44997;-61
2023/01/19 02:23:52;;;;;;;;;19.50;17.75;25.00;45.10;;;;;;112580;1243;56243;-59
2023/01/19 02:26:22;;;;;;;;;20.25;19.00;25.00;45.10;;;;;;112584;1245;56071;-59
2023/01/19 02:28:57;;;;;;;;;20.25;19.00;25.00;45.20;;;;;;112573;1245;49335;-59
2023/01/19 02:31:25;;;;;;;;;20.33;19.33;25.00;45.20;;;;;;112561;1241;48829;-59
2023/01/19 02:33:53;;;;;;;;;19.25;17.00;24.90;45.00;;;;;;112260;1247;44868;-59
2023/01/19 02:36:24;;;;;;;;;20.25;17.50;25.00;45.10;;;;;;112557;1245;56536;-59
2023/01/19 02:38:55;;;;;;;;;20.00;17.67;25.00;45.10;;;;;;112559;1245;56487;-59
2023/01/19 02:41:27;;;;;;;;;19.00;17.50;24.90;45.00;;;;;;112545;1245;49772;-59
2023/01/19 02:43:56;;;;;;;;;20.67;18.00;25.00;45.10;;;;;;112288;1244;49580;-59
2023/01/19 02:46:24;;;;;;;;;20.50;17.00;24.90;44.50;;;;;;112642;1245;44740;-58
2023/01/19 02:48:51;;;;;;;;;21.25;20.00;25.00;44.70;;;;;;112651;1241;55493;-58
2023/01/19 02:51:23;;;;;;;;;19.25;17.75;25.00;44.80;;;;;;112618;1245;55976;-58
2023/01/19 02:54:19;;;;;;;;;19.00;18.00;25.00;45.00;;;;;;112647;1245;49849;-58
2023/01/19 02:57:07;;;;;;;;;24.00;19.25;25.00;45.00;;;;;;112644;1245;49734;-58
2023/01/19 02:59:40;;;;;;;;;18.75;17.25;25.10;45.10;;;;;;112651;1245;44801;-59
2023/01/19 03:02:16;;;;;;;;;22.00;18.25;25.10;45.10;;;;;;112645;1241;56674;-60
2023/01/19 03:04:43;;;;;;;;;20.00;16.00;25.10;45.10;;;;;;112612;1241;55612;-60
2023/01/19 03:07:15;;;;;;;;;18.00;16.00;25.20;45.40;;;;;;112623;1245;49026;-59
2023/01/19 03:09:51;;;;;;;;;19.25;18.00;25.20;45.20;;;;;;112636;1241;49347;-59
2023/01/19 03:12:39;;;;;;;;;20.50;19.00;25.20;45.20;;;;;;112646;1241;45117;-61
2023/01/19 03:15:19;;;;;;;;;18.33;15.33;25.20;45.10;;;;;;112625;1245;56962;-59
2023/01/19 03:17:48;;;;;;;;;16.50;15.50;25.30;45.10;;;;;;112605;1241;55366;-60
2023/01/19 03:20:20;;;;;;;;;21.75;19.50;25.30;45.10;;;;;;112620;1245;50575;-60
2023/01/19 03:22:51;;;;;;;;;21.00;16.50;25.30;45.00;;;;;;112595;1245;49980;-59
2023/01/19 03:25:19;;;;;;;;;19.25;14.25;25.30;45.00;;;;;;112624;1245;44340;-57
2023/01/19 03:27:47;;;;;;;;;16.50;15.00;25.30;45.00;;;;;;112360;1243;56505;-58
2023/01/19 03:30:21;;;;;;;;;19.75;16.75;25.30;45.00;;;;;;112350;1246;55550;-58
2023/01/19 03:32:58;;;;;;;;;17.00;15.67;25.30;45.00;;;;;;112557;1243;49652;-58
2023/01/19 03:35:28;;;;;;;;;19.50;17.00;25.30;44.90;;;;;;112572;1245;50133;-58
2023/01/19 03:37:57;;;;;;;;;17.00;16.00;25.30;44.80;;;;;;112579;1246;45166;-59
2023/01/19 03:40:27;;;;;;;;;24.67;20.33;25.30;44.80;;;;;;112585;1246;56914;-59
2023/01/19 03:42:54;;;;;;;;;18.00;16.50;25.30;44.70;;;;;;112559;1245;56432;-59
2023/01/19 03:45:22;;;;;;;;;18.00;17.00;25.30;44.70;;;;;;112547;1241;49401;-59
2023/01/19 03:47:49;;;;;;;;;19.00;16.00;25.30;44.70;;;;;;112549;1241;50407;-59
2023/01/19 03:50:26;;;;;;;;;17.00;16.00;25.30;44.70;;;;;;112286;1245;45600;-59
2023/01/19 03:53:08;;;;;;;;;19.75;17.25;25.30;44.70;;;;;;112277;1243;55614;-58
2023/01/19 03:55:37;;;;;;;;;16.75;15.25;25.30;44.70;;;;;;112562;1245;55534;-59
2023/01/19 03:58:04;;;;;;;;;20.00;19.00;25.30;44.70;;;;;;112602;1245;49148;-58
2023/01/19 05:46:34;;;;;;;;;48.75;36.25;23.50;53.00;;;;;;109374;1280;36239;-72
2023/01/19 05:49:03;;;;;;;;;47.25;32.25;23.60;50.90;;;;;;111623;1255;45836;-72
2023/01/19 05:51:36;;;;;;;;;51.25;34.25;23.80;49.90;;;;;;111740;1253;55585;-74
2023/01/19 05:54:04;;;;;;;;;45.50;34.75;24.10;48.80;;;;;;111714;1253;56303;-77
2023/01/19 05:56:31;;;;;;;;;43.00;31.75;24.30;48.50;;;;;;111705;1254;49065;-82
2023/01/19 05:58:59;;;;;;;;;48.00;35.00;24.60;47.90;;;;;;111226;1250;611992;-75
2023/01/19 06:01:26;;;;;;;;;40.00;31.25;24.70;47.60;;;;;;112050;1251;44976;-66
2023/01/19 06:03:54;;;;;;;;;47.50;33.25;24.90;47.40;;;;;;112069;1251;56298;-64
2023/01/19 06:06:21;;;;;;;;;45.67;29.67;24.90;47.20;;;;;;112307;1244;55759;-65
2023/01/19 06:08:48;;;;;;;;;35.50;26.50;25.00;46.90;;;;;;112309;1245;50375;-65
2023/01/19 06:11:15;;;;;;;;;24.75;22.50;25.10;46.70;;;;;;112295;1247;48876;-65
2023/01/19 06:13:42;;;;;;;;;33.25;25.75;25.20;46.40;;;;;;112290;1247;45350;-65
2023/01/19 06:16:10;;;;;;;;;40.75;30.00;25.20;46.20;;;;;;113048;1238;56672;-65
2023/01/19 06:18:37;;;;;;;;;30.25;23.25;25.20;46.00;;;;;;113001;1242;55250;-65
2023/01/19 06:21:06;;;;;;;;;28.25;24.00;25.20;45.80;;;;;;113029;1243;49645;-65
2023/01/19 06:23:34;;;;;;;;;35.67;26.67;25.20;45.60;;;;;;113003;1242;50869;-66
2023/01/19 06:26:01;;;;;;;;;31.75;22.50;25.30;45.50;;;;;;112838;1243;44940;-66
2023/01/19 06:28:28;;;;;;;;;27.75;24.50;25.20;45.20;;;;;;113042;1242;55900;-66
2023/01/19 06:30:56;;;;;;;;;27.25;21.25;25.30;45.20;;;;;;113026;1238;55663;-66
2023/01/19 06:33:24;;;;;;;;;28.00;25.00;25.30;45.10;;;;;;113055;1242;49483;-68
2023/01/19 06:35:51;;;;;;;;;28.50;22.00;25.30;45.10;;;;;;113037;1242;49529;-69
2023/01/19 06:38:18;;;;;;;;;22.25;19.25;25.30;44.60;;;;;;112999;1243;44455;-67
2023/01/19 06:40:50;;;;;;;;;25.00;19.25;25.30;44.40;;;;;;113055;1238;56497;-68
2023/01/19 06:43:19;;;;;;;;;26.00;20.00;25.20;44.20;;;;;;113022;1242;55507;-69
2023/01/19 06:45:46;;;;;;;;;22.25;21.25;25.20;44.30;;;;;;113019;1243;50468;-66
2023/01/19 06:48:13;;;;;;;;;24.75;20.00;25.30;43.90;;;;;;113019;1243;49700;-65
2023/01/19 06:50:40;;;;;;;;;21.00;18.00;25.20;43.80;;;;;;113019;1239;44907;-70
2023/01/19 06:53:07;;;;;;;;;28.50;19.75;25.20;43.70;;;;;;113039;1243;56293;-68
2023/01/19 06:55:35;;;;;;;;;36.75;29.50;25.20;43.30;;;;;;112978;1242;55196;-68
2023/01/19 06:58:02;;;;;;;;;36.25;31.00;25.10;41.40;;;;;;112911;1242;49248;-69
2023/01/19 07:00:29;;;;;;;;;32.50;29.75;25.00;42.00;;;;;;112900;1243;49601;-66
2023/01/19 07:02:56;;;;;;;;;32.50;26.50;25.00;42.50;;;;;;112924;1243;44767;-67
2023/01/19 07:05:23;;;;;;;;;28.50;23.50;24.90;42.70;;;;;;112928;1242;55304;-67
2023/01/19 07:07:55;;;;;;;;;28.50;23.25;24.90;43.10;;;;;;112883;1238;55770;-67
2023/01/19 07:10:23;;;;;;;;;34.00;27.50;24.90;43.00;;;;;;112787;1239;49803;-80
2023/01/19 07:12:50;;;;;;;;;33.00;27.25;24.90;42.90;;;;;;112395;1245;49598;-69
2023/01/19 07:15:18;;;;;;;;;25.00;21.75;24.90;43.00;;;;;;112747;1238;44763;-66
2023/01/19 07:17:45;;;;;;;;;23.25;20.25;24.90;42.90;;;;;;112818;1244;55632;-66
2023/01/19 07:20:13;;;;;;;;;28.50;19.25;24.90;42.70;;;;;;112753;1245;57004;-69
2023/01/19 07:22:42;;;;;;;;;23.75;22.75;25.00;42.80;;;;;;112761;1244;49109;-70
2023/01/19 07:25:09;;;;;;;;;24.75;21.75;25.00;42.70;;;;;;112756;1244;49470;-72
2023/01/19 07:27:36;;;;;;;;;46.50;31.50;25.00;42.50;;;;;;112729;1243;45043;-69
2023/01/19 07:30:03;;;;;;;;;58.75;39.25;25.00;42.50;;;;;;112772;1240;55446;-69
2023/01/19 07:32:30;;;;;;;;;49.50;40.75;25.00;42.50;;;;;;112761;1242;55891;-73
2023/01/19 07:34:57;;;;;;;;;57.00;40.75;24.90;42.50;;;;;;112739;1244;48771;-71
2023/01/19 07:37:24;;;;;;;;;72.25;50.25;24.90;42.60;;;;;;112742;1244;49967;-71
2023/01/19 07:39:51;;;;;;;;;70.25;55.00;24.90;42.40;;;;;;112756;1241;45401;-70
2023/01/19 07:42:18;;;;;;;;;81.25;63.75;24.90;42.40;;;;;;112774;1242;55605;-75
2023/01/19 07:44:45;;;;;;;;;79.00;60.50;24.90;42.40;;;;;;112733;1240;55910;-63
2023/01/19 07:47:11;;;;;;;;;92.00;71.00;24.90;42.30;;;;;;112744;1241;49669;-72
2023/01/19 07:49:38;;;;;;;;;74.00;55.00;24.90;42.50;;;;;;112741;1242;49344;-74
2023/01/19 07:52:06;;;;;;;;;77.50;59.75;24.90;42.30;;;;;;112748;1245;44574;-70
2023/01/19 07:54:33;;;;;;;;;82.25;60.50;24.90;42.20;;;;;;112371;1244;55423;-77
2023/01/19 07:57:00;;;;;;;;;81.25;56.50;24.90;42.30;;;;;;112379;1246;56323;-72
2023/01/19 07:59:29;;;;;;;;;71.75;50.00;24.90;42.20;;;;;;112823;1244;48922;-64
2023/01/19 08:01:59;;;;;;;;;64.75;48.75;24.90;42.20;;;;;;112793;1241;49088;-73
2023/01/19 08:04:26;;;;;;;;;68.25;49.75;24.90;42.40;;;;;;112827;1243;45166;-76
2023/01/19 08:06:54;;;;;;;;;68.00;50.75;24.90;42.50;;;;;;112832;1243;55794;-76
2023/01/19 08:09:21;;;;;;;;;64.75;48.25;24.90;42.40;;;;;;112761;1245;56354;-66
2023/01/19 08:11:48;;;;;;;;;60.00;43.00;24.80;42.40;;;;;;112836;1238;49302;-71
2023/01/19 08:14:15;;;;;;;;;56.50;40.50;24.90;42.50;;;;;;112782;1244;48777;-69
2023/01/19 08:16:42;;;;;;;;;51.25;39.00;24.90;42.50;;;;;;112820;1238;45497;-76
2023/01/19 08:19:09;;;;;;;;;52.50;39.00;24.80;42.50;;;;;;112758;1243;55598;-71
2023/01/19 08:21:37;;;;;;;;;57.50;42.50;24.80;42.50;;;;;;112751;1243;55307;-72
2023/01/19 08:24:05;;;;;;;;;52.75;39.75;24.90;42.60;;;;;;112781;1241;49413;-71
2023/01/19 08:26:33;;;;;;;;;44.75;34.50;24.80;42.50;;;;;;112836;1239;49297;-61
2023/01/19 08:29:02;;;;;;;;;49.50;35.00;24.80;42.40;;;;;;112809;1243;44685;-67
2023/01/19 08:31:29;;;;;;;;;48.00;32.75;24.90;42.30;;;;;;112837;1243;55136;-73
2023/01/19 08:33:57;;;;;;;;;35.75;29.75;24.80;41.90;;;;;;112792;1243;56019;-71
2023/01/19 08:36:24;;;;;;;;;36.50;28.75;24.80;42.00;;;;;;112782;1243;49104;-66
2023/01/19 08:38:51;;;;;;;;;42.00;30.33;24.80;42.00;;;;;;113092;1238;49324;-67
2023/01/19 08:41:18;;;;;;;;;39.75;31.75;24.70;42.00;;;;;;113078;1237;44771;-67
2023/01/19 08:43:45;;;;;;;;;43.50;30.25;24.70;42.10;;;;;;113086;1241;56575;-72
2023/01/19 08:46:16;;;;;;;;;42.50;31.50;24.70;42.00;;;;;;113066;1241;55379;-67
2023/01/19 08:48:52;;;;;;;;;59.50;43.50;24.70;42.10;;;;;;113075;1238;48925;-73
2023/01/19 08:51:19;;;;;;;;;50.33;35.33;24.70;42.10;;;;;;113049;1237;49270;-72
2023/01/19 08:53:46;;;;;;;;;53.00;36.25;24.70;42.20;;;;;;113072;1241;45090;-72
2023/01/19 08:56:13;;;;;;;;;49.00;33.50;24.70;42.00;;;;;;113087;1237;56244;-64
2023/01/19 08:58:42;;;;;;;;;44.25;32.50;24.70;42.00;;;;;;113086;1241;55191;-70
2023/01/19 09:01:12;;;;;;;;;36.00;29.50;24.70;42.20;;;;;;113094;1241;50378;-63
2023/01/19 09:03:39;;;;;;;;;40.67;33.00;24.70;42.10;;;;;;113081;1241;49970;-62
2023/01/19 09:06:07;;;;;;;;;42.75;28.50;24.70;42.10;;;;;;113075;1241;44784;-64
2023/01/19 09:08:34;;;;;;;;;28.25;26.00;24.70;42.10;;;;;;113097;1241;56010;-68
2023/01/19 09:11:01;;;;;;;;;36.25;29.25;24.70;42.30;;;;;;112884;1243;55981;-67
2023/01/19 09:13:28;;;;;;;;;40.00;32.50;24.70;42.40;;;;;;113094;1237;49657;-69
2023/01/19 09:15:55;;;;;;;;;39.00;32.00;24.70;42.40;;;;;;113095;1241;50223;-69
2023/01/19 09:18:22;;;;;;;;;39.25;30.50;24.70;42.50;;;;;;113093;1237;45592;-62
2023/01/19 09:20:49;;;;;;;;;38.75;29.50;24.70;42.60;;;;;;113082;1241;55998;-74
2023/01/19 09:23:22;;;;;;;;;39.50;29.25;24.70;42.60;;;;;;113076;1241;55920;-78
2023/01/19 09:25:55;;;;;;;;;35.25;30.75;24.70;42.70;;;;;;112917;1244;49837;-72
2023/01/19 09:28:22;;;;;;;;;30.75;27.25;24.70;42.90;;;;;;113070;1241;49148;-78
2023/01/19 09:30:49;;;;;;;;;30.75;27.75;24.70;42.90;;;;;;112837;1241;44548;-62
2023/01/19 09:33:17;;;;;;;;;33.00;30.25;24.70;42.90;;;;;;113079;1241;55786;-71
2023/01/19 09:35:45;;;;;;;;;29.00;26.00;24.70;43.00;;;;;;113081;1241;55486;-70
2023/01/19 09:38:16;;;;;;;;;26.50;23.25;24.70;42.50;;;;;;113090;1241;49742;-72
2023/01/19 09:40:56;;;;;;;;;29.50;25.75;24.60;42.70;;;;;;113111;1238;49358;-71
2023/01/19 09:43:27;;;;;;;;;47.33;34.33;24.60;42.90;;;;;;113113;1241;44379;-71
2023/01/19 09:45:57;;;;;;;;;38.75;29.75;24.70;42.90;;;;;;113077;1241;56008;-73
2023/01/19 09:48:52;;;;;;;;;34.75;26.75;24.60;43.30;;;;;;113086;1241;56135;-72
2023/01/19 09:51:46;;;;;;;;;37.75;27.00;24.70;42.80;;;;;;112859;1241;50598;-73
2023/01/19 09:54:37;;;;;;;;;34.00;30.00;24.70;42.80;;;;;;112930;1241;49169;-73
2023/01/19 09:57:09;;;;;;;;;30.50;25.75;24.80;42.80;;;;;;112917;1237;44529;-71
2023/01/19 09:59:37;;;;;;;;;37.00;25.00;24.80;42.70;;;;;;113040;1241;55766;-70
2023/01/19 10:02:15;;;;;;;;;28.25;23.75;24.80;42.70;;;;;;113072;1237;56151;-69
2023/01/19 10:05:02;;;;;;;;;31.00;27.50;24.80;42.70;;;;;;112849;1241;49104;-67
2023/01/19 10:07:52;;;;;;;;;30.33;24.33;24.80;43.00;;;;;;113093;1241;49933;-72
2023/01/19 10:10:25;;;;;;;;;25.50;22.50;24.80;42.80;;;;;;113161;1241;45869;-64
2023/01/19 10:13:01;;;;;;;;;19.50;17.00;24.80;41.50;;;;;;113099;1238;56342;-71
2023/01/19 10:15:40;;;;;;;;;20.25;16.50;24.70;41.40;;;;;;112836;1240;55167;-70
2023/01/19 10:18:18;;;;;;;;;25.67;20.67;24.60;42.10;;;;;;113062;1241;50826;-66
2023/01/19 10:20:49;;;;;;;;;29.00;18.75;24.60;42.50;;;;;;113078;1241;49658;-71
2023/01/19 10:23:40;;;;;;;;;28.00;22.00;24.60;42.70;;;;;;112861;1240;44807;-64
2023/01/19 10:26:13;;;;;;;;;25.00;21.00;24.60;43.00;;;;;;113118;1235;55608;-65
2023/01/19 10:28:40;;;;;;;;;23.75;18.00;24.70;43.00;;;;;;113151;1240;56946;-63
2023/01/19 10:31:08;;;;;;;;;23.25;17.00;24.60;42.80;;;;;;113158;1240;49007;-64
2023/01/19 10:33:35;;;;;;;;;20.50;16.75;24.60;42.80;;;;;;113138;1240;49213;-64
2023/01/19 10:36:04;;;;;;;;;23.00;20.25;24.60;42.80;;;;;;113105;1240;44734;-64
2023/01/19 10:38:33;;;;;;;;;21.00;16.25;24.60;42.80;;;;;;113090;1240;55981;-65
2023/01/19 10:41:05;;;;;;;;;22.25;19.00;24.50;42.70;;;;;;113117;1240;56214;-65
2023/01/19 10:43:38;;;;;;;;;17.25;15.75;24.60;42.90;;;;;;113108;1235;49104;-64
2023/01/19 10:46:16;;;;;;;;;25.50;20.50;24.50;42.80;;;;;;113113;1240;49085;-64
2023/01/19 10:48:43;;;;;;;;;18.50;16.00;24.60;42.90;;;;;;113131;1235;44748;-64
2023/01/19 10:51:11;;;;;;;;;27.00;22.33;24.60;42.90;;;;;;113103;1241;55334;-64
2023/01/19 10:53:39;;;;;;;;;19.50;17.75;24.60;42.90;;;;;;113086;1237;56606;-72
2023/01/19 10:56:13;;;;;;;;;24.75;18.25;24.60;42.80;;;;;;113084;1241;49429;-69
2023/01/19 10:58:40;;;;;;;;;23.25;20.25;24.60;42.90;;;;;;113092;1237;49463;-61
2023/01/19 11:01:26;;;;;;;;;20.50;18.75;24.60;43.00;;;;;;113099;1241;44653;-64
2023/01/19 11:03:58;;;;;;;;;18.00;14.50;24.60;42.90;;;;;;113163;1240;55201;-72
2023/01/19 11:06:28;;;;;;;;;20.75;18.00;24.70;43.00;;;;;;113090;1238;56358;-63
2023/01/19 11:09:30;;;;;;;;;19.25;16.75;24.70;43.10;;;;;;113123;1240;49637;-72
2023/01/19 11:11:57;;;;;;;;;23.00;20.25;24.70;42.60;;;;;;112273;1244;49844;-74
2023/01/19 11:14:25;;;;;;;;;15.00;13.00;24.70;43.00;;;;;;112885;1241;44575;-76
2023/01/19 11:16:55;;;;;;;;;20.00;17.00;24.70;43.00;;;;;;113032;1241;57368;-75
2023/01/19 11:19:30;;;;;;;;;22.25;17.00;24.80;43.00;;;;;;112808;1241;56202;-75
2023/01/19 11:22:25;;;;;;;;;18.25;16.50;24.80;42.90;;;;;;112810;1241;49553;-61
2023/01/19 11:24:56;;;;;;;;;19.00;17.00;24.80;42.90;;;;;;113035;1238;49674;-68
2023/01/19 11:27:24;;;;;;;;;21.75;17.50;24.90;43.30;;;;;;113064;1235;45268;-76
2023/01/19 11:30:04;;;;;;;;;34.75;21.25;24.90;43.10;;;;;;112801;1241;57036;-72
2023/01/19 11:32:33;;;;;;;;;50.25;35.75;24.90;43.00;;;;;;113078;1239;56100;-72
2023/01/19 11:34:59;;;;;;;;;61.50;42.75;24.90;43.10;;;;;;113076;1235;49721;-60
2023/01/19 11:37:30;;;;;;;;;40.25;34.00;24.90;43.10;;;;;;113083;1235;49409;-61
2023/01/19 11:39:58;;;;;;;;;44.50;31.75;24.90;42.90;;;;;;113095;1240;45401;-67
2023/01/19 11:42:28;;;;;;;;;42.75;32.25;24.90;42.90;;;;;;113113;1235;55628;-74
2023/01/19 11:45:13;;;;;;;;;31.25;26.25;24.80;42.60;;;;;;113132;1240;56296;-74
2023/01/19 11:47:44;;;;;;;;;35.50;27.25;24.80;42.30;;;;;;113102;1240;49280;-69
2023/01/19 11:50:21;;;;;;;;;26.25;21.50;24.80;41.50;;;;;;113150;1240;49564;-69
2023/01/19 11:53:21;;;;;;;;;25.00;17.67;24.70;41.20;;;;;;113139;1238;45134;-73
2023/01/19 11:55:54;;;;;;;;;18.75;16.75;24.70;40.50;;;;;;113096;1235;55689;-68
2023/01/19 11:58:22;;;;;;;;;30.50;24.25;24.70;40.50;;;;;;113129;1238;55512;-65
2023/01/19 12:00:56;;;;;;;;;28.00;23.50;24.70;40.90;;;;;;113130;1235;49796;-73
2023/01/19 12:03:43;;;;;;;;;35.00;21.75;24.70;39.80;;;;;;113083;1238;49457;-71
2023/01/19 12:06:14;;;;;;;;;17.50;15.75;24.80;39.90;;;;;;113113;1241;44375;-75
2023/01/19 12:08:53;;;;;;;;;17.50;14.25;25.00;39.10;;;;;;113118;1235;55252;-70
2023/01/19 12:11:25;;;;;;;;;13.67;10.00;25.20;38.20;;;;;;113129;1235;55909;-70
2023/01/19 12:13:53;;;;;;;;;9.75;8.75;25.40;37.20;;;;;;113054;1238;49697;-71
2023/01/19 12:16:22;;;;;;;;;9.00;8.00;25.50;36.90;;;;;;113125;1238;49098;-72
2023/01/19 12:18:59;;;;;;;;;8.50;7.50;25.50;36.70;;;;;;113084;1240;45163;-70
2023/01/19 12:21:26;;;;;;;;;9.50;8.00;25.50;36.50;;;;;;113119;1239;55781;-67
2023/01/19 12:24:06;;;;;;;;;10.00;9.00;25.50;36.50;;;;;;113123;1241;55956;-77
2023/01/19 12:26:44;;;;;;;;;8.00;7.25;25.50;36.50;;;;;;113096;1240;49995;-76
2023/01/19 12:29:23;;;;;;;;;13.25;9.25;25.20;37.00;;;;;;113101;1240;49962;-78
2023/01/19 12:32:12;;;;;;;;;10.75;9.00;25.10;37.90;;;;;;113073;1240;44440;-77
2023/01/19 12:34:46;;;;;;;;;13.50;8.00;24.90;38.50;;;;;;113131;1240;56083;-81
2023/01/19 12:37:40;;;;;;;;;14.75;11.75;24.90;39.10;;;;;;113108;1237;55763;-84
2023/01/19 12:40:18;;;;;;;;;13.50;10.75;24.80;39.60;;;;;;113073;1238;49406;-75
2023/01/19 12:42:48;;;;;;;;;16.50;12.75;24.80;39.70;;;;;;113089;1241;49744;-73
2023/01/19 12:45:23;;;;;;;;;15.75;10.00;24.70;40.00;;;;;;113072;1241;45230;-78
2023/01/19 12:47:52;;;;;;;;;10.75;9.00;24.80;40.30;;;;;;113086;1241;55439;-73
2023/01/19 12:50:22;;;;;;;;;12.75;8.00;24.80;40.40;;;;;;112824;1240;55166;-76
2023/01/19 12:52:58;;;;;;;;;10.00;8.25;24.80;40.40;;;;;;112823;1241;49689;-78
2023/01/19 12:55:29;;;;;;;;;13.00;8.75;24.80;39.70;;;;;;112834;1244;49197;-77
2023/01/19 12:58:06;;;;;;;;;11.25;8.00;24.80;39.40;;;;;;113096;1241;45146;-73
2023/01/19 13:00:35;;;;;;;;;11.50;9.75;24.90;39.70;;;;;;113127;1237;55457;-69
2023/01/19 13:03:17;;;;;;;;;15.50;11.25;24.90;40.30;;;;;;113150;1241;56845;-74
2023/01/19 13:05:53;;;;;;;;;9.00;7.75;24.90;40.50;;;;;;113072;1240;49407;-74
2023/01/19 13:08:22;;;;;;;;;11.75;8.75;25.00;40.60;;;;;;112815;1244;49152;-73
2023/01/19 13:10:52;;;;;;;;;10.00;8.50;25.00;40.30;;;;;;113108;1237;45356;-73
2023/01/19 13:13:29;;;;;;;;;10.00;9.00;24.90;40.40;;;;;;112954;1243;55343;-70
2023/01/19 13:16:17;;;;;;;;;10.75;7.75;24.90;40.90;;;;;;113084;1237;56228;-71
2023/01/19 13:18:55;;;;;;;;;11.75;10.50;25.00;41.00;;;;;;112577;1240;49484;-75
2023/01/19 13:21:26;;;;;;;;;11.00;9.25;25.00;41.10;;;;;;113089;1241;49170;-75
2023/01/19 13:23:58;;;;;;;;;13.25;9.00;25.00;41.20;;;;;;113070;1237;45465;-75
2023/01/19 13:26:37;;;;;;;;;10.00;8.25;25.00;41.20;;;;;;112822;1241;55935;-74
2023/01/19 13:29:04;;;;;;;;;11.25;8.00;25.10;41.40;;;;;;112779;1241;56401;-73
2023/01/19 13:31:36;;;;;;;;;12.75;9.75;25.10;41.40;;;;;;113079;1241;49717;-76
2023/01/19 13:34:11;;;;;;;;;12.00;7.75;25.10;41.40;;;;;;112798;1244;49898;-71
2023/01/19 13:36:43;;;;;;;;;10.25;9.00;25.10;41.40;;;;;;113073;1238;44670;-73
2023/01/19 13:39:25;;;;;;;;;9.25;8.00;25.10;41.30;;;;;;112806;1241;56250;-72
2023/01/19 13:41:56;;;;;;;;;11.25;8.00;25.10;41.30;;;;;;112852;1239;55806;-71
2023/01/19 13:44:29;;;;;;;;;11.00;9.00;25.10;41.30;;;;;;112826;1241;48500;-69
2023/01/19 13:46:58;;;;;;;;;9.75;8.25;25.20;41.30;;;;;;112914;1242;49421;-74
2023/01/19 13:49:38;;;;;;;;;9.75;8.25;25.20;41.30;;;;;;112651;1245;44760;-75
2023/01/19 13:52:23;;;;;;;;;9.50;7.75;25.20;41.40;;;;;;112943;1240;55928;-80
2023/01/19 13:54:51;;;;;;;;;10.25;7.50;25.20;39.80;;;;;;112803;1242;56954;-75
2023/01/19 13:57:25;;;;;;;;;11.75;8.75;25.20;39.10;;;;;;113080;1241;48789;-79
2023/01/19 14:00:10;;;;;;;;;11.75;9.00;25.20;40.00;;;;;;113075;1240;49554;-84
2023/01/19 14:02:57;;;;;;;;;12.25;8.00;25.20;38.60;;;;;;113084;1241;45072;-76
2023/01/19 14:05:30;;;;;;;;;11.67;9.00;25.10;37.30;;;;;;113090;1241;55518;-77
2023/01/19 14:08:07;;;;;;;;;11.25;10.00;25.00;37.10;;;;;;113097;1238;55541;-77
2023/01/19 14:10:37;;;;;;;;;8.25;7.00;24.90;36.70;;;;;;113088;1240;49102;-74
2023/01/19 14:13:11;;;;;;;;;9.00;7.75;24.70;36.80;;;;;;113074;1237;50118;-72
2023/01/19 14:15:39;;;;;;;;;12.25;9.00;24.60;37.70;;;;;;113094;1239;45027;-77
2023/01/19 14:18:17;;;;;;;;;11.25;9.25;24.50;37.70;;;;;;112934;1238;55692;-78
2023/01/19 14:21:07;;;;;;;;;9.00;7.25;24.40;38.50;;;;;;113091;1240;55522;-76
2023/01/19 14:23:43;;;;;;;;;10.67;9.00;24.40;39.20;;;;;;113091;1238;49418;-77
2023/01/19 14:26:47;;;;;;;;;10.50;9.25;24.40;39.70;;;;;;113079;1238;49412;-72
2023/01/19 14:29:20;;;;;;;;;14.75;11.75;24.40;40.20;;;;;;113102;1240;44373;-72
2023/01/19 14:32:03;;;;;;;;;17.50;13.00;24.40;40.60;;;;;;113113;1240;55259;-68